Time;durP1;ratioP1;P1;durP2;ratioP2;P2;SDS_P1;SDS_P2;PMS_P1;PMS_P2;Temp;Humidity;BMP_temperature;BMP_pressure;BME280_temperature;BME280_humidity;BME280_pressure;Samples;Min_cycle;Max_cycle;Signal;HPM_P1;HPM_P2
2022/11/08 00:01:33;;;;;;;38.63;20.38;;;;;;;13.14;80.71;100415.25;5033620;28;20036;-69
2022/11/08 00:04:07;;;;;;;35.90;21.13;;;;;;;13.27;80.23;100417.47;5034293;28;20096;-69
2022/11/08 00:14:48;;;;;;;41.40;20.95;;;;;;;13.26;80.92;100419.31;5033541;28;19940;-67
2022/11/08 00:17:16;;;;;;;40.67;21.80;;;;;;;13.30;80.86;100412.66;5036438;28;20108;-69
2022/11/08 00:19:42;;;;;;;42.55;22.90;;;;;;;13.21;81.43;100413.66;5035092;28;20096;-69
2022/11/08 00:22:09;;;;;;;43.17;24.65;;;;;;;13.21;81.44;100412.81;5035747;28;20056;-70
2022/11/08 00:24:35;;;;;;;42.00;23.08;;;;;;;13.10;81.79;100403.28;5032431;28;20037;-70
2022/11/08 00:27:06;;;;;;;44.95;23.58;;;;;;;13.10;82.56;100405.94;5033143;28;20096;-69
2022/11/08 00:29:34;;;;;;;50.08;25.30;;;;;;;13.05;82.59;100403.78;5034999;28;20040;-69
2022/11/08 00:32:00;;;;;;;45.85;24.45;;;;;;;13.15;82.21;100410.78;5032287;28;20037;-70
2022/11/08 00:34:26;;;;;;;44.03;23.75;;;;;;;13.13;82.38;100410.09;5031224;28;20435;-69
2022/11/08 00:36:52;;;;;;;51.25;26.65;;;;;;;13.03;82.69;100408.41;5033875;28;20029;-69
2022/11/08 00:39:18;;;;;;;45.13;26.45;;;;;;;12.89;83.42;100401.06;5036127;28;20076;-69
2022/11/08 00:41:43;;;;;;;51.42;26.75;;;;;;;12.69;83.84;100365.13;5036751;28;20025;-69
2022/11/08 00:44:09;;;;;;;53.85;27.30;;;;;;;12.88;83.17;100398.56;5036394;28;20055;-69
2022/11/08 00:46:36;;;;;;;49.95;26.25;;;;;;;12.75;84.35;100405.16;5038414;28;20052;-69
2022/11/08 00:49:02;;;;;;;48.20;25.65;;;;;;;12.65;84.12;100399.16;5038671;28;20044;-69
2022/11/08 00:51:28;;;;;;;46.67;26.33;;;;;;;12.71;84.11;100387.03;5039436;28;20067;-69
2022/11/08 00:53:53;;;;;;;51.20;26.88;;;;;;;12.88;83.94;100395.91;5020646;28;20277;-69
2022/11/08 00:56:18;;;;;;;50.63;27.10;;;;;;;12.82;84.07;100392.06;5036427;28;20104;-69
2022/11/08 00:58:44;;;;;;;56.50;27.35;;;;;;;12.83;83.88;100391.06;5020509;28;20052;-69
2022/11/08 01:01:19;;;;;;;56.85;28.63;;;;;;;12.98;83.63;100388.63;5038165;28;20254;-69
2022/11/08 01:03:45;;;;;;;51.75;27.25;;;;;;;13.07;83.30;100385.00;5039753;28;20079;-69
2022/11/08 01:06:12;;;;;;;47.75;27.05;;;;;;;12.92;83.84;100383.97;5035384;28;20259;-69
2022/11/08 01:08:39;;;;;;;55.40;28.10;;;;;;;12.98;83.41;100385.97;5036629;28;20045;-69
2022/11/08 01:11:07;;;;;;;54.40;29.63;;;;;;;12.88;83.92;100394.09;5038814;28;20029;-69
2022/11/08 01:13:33;;;;;;;49.35;28.08;;;;;;;12.90;84.21;100383.28;5038265;28;20033;-69
2022/11/08 01:16:04;;;;;;;53.22;27.50;;;;;;;12.82;84.24;100369.97;5035688;28;20037;-69
2022/11/08 01:18:29;;;;;;;54.53;28.98;;;;;;;12.84;84.33;100378.63;5039128;28;20036;-69
2022/11/08 01:20:55;;;;;;;55.40;29.15;;;;;;;12.95;84.00;100376.50;5036606;28;20088;-69
2022/11/08 01:23:20;;;;;;;52.03;27.42;;;;;;;13.01;83.03;100356.41;5020063;28;20311;-69
2022/11/08 01:25:47;;;;;;;53.50;28.13;;;;;;;13.06;83.38;100360.25;5038428;28;20029;-69
2022/11/08 01:28:12;;;;;;;46.80;26.27;;;;;;;13.04;83.40;100361.41;5037771;28;20092;-69
2022/11/08 01:30:40;;;;;;;49.95;27.02;;;;;;;13.01;83.19;100359.91;5035545;28;20025;-69
2022/11/08 01:33:06;;;;;;;55.08;28.60;;;;;;;13.04;83.40;100356.06;5035469;28;20061;-69
2022/11/08 01:35:33;;;;;;;48.13;26.17;;;;;;;13.04;83.29;100354.25;5035791;28;20036;-69
2022/11/08 01:37:59;;;;;;;47.85;25.08;;;;;;;12.97;83.38;100341.78;5037702;28;20315;-69
2022/11/08 01:40:26;;;;;;;51.53;26.08;;;;;;;13.04;82.47;100353.41;5038405;28;20048;-69
2022/11/08 01:42:52;;;;;;;54.15;27.13;;;;;;;13.01;82.55;100348.44;5019600;28;20036;-69
2022/11/08 01:45:55;;;;;;;49.45;27.45;;;;;;;13.03;82.82;100351.75;5018899;28;20033;-69
2022/11/08 01:48:21;;;;;;;51.38;27.17;;;;;;;12.90;83.26;100346.06;5035972;28;20103;-69
2022/11/08 01:50:47;;;;;;;51.47;26.75;;;;;;;12.94;83.19;100353.56;5037518;28;20097;-69
2022/11/08 01:53:12;;;;;;;50.42;26.80;;;;;;;12.95;83.02;100352.56;5036775;28;20033;-69
2022/11/08 01:55:38;;;;;;;48.47;27.23;;;;;;;12.92;82.50;100346.75;5033842;28;20033;-69
2022/11/08 01:58:09;;;;;;;50.25;27.60;;;;;;;12.89;83.10;100347.06;5037814;28;20307;-69
2022/11/08 02:00:37;;;;;;;53.40;26.73;;;;;;;12.83;83.15;100345.06;5038174;28;20366;-69
2022/11/08 02:03:05;;;;;;;51.83;29.40;;;;;;;12.56;83.45;100333.69;5038002;28;20067;-69
2022/11/08 02:05:32;;;;;;;59.33;30.00;;;;;;;12.41;85.11;100346.72;5034735;28;20025;-69
2022/11/08 02:08:08;;;;;;;56.22;29.67;;;;;;;12.36;85.75;100345.53;5036561;28;20037;-69
2022/11/08 02:10:36;;;;;;;57.00;28.75;;;;;;;12.40;85.95;100345.03;5033758;28;20036;-69
2022/11/08 02:13:02;;;;;;;51.80;27.42;;;;;;;12.47;85.73;100340.75;5037135;28;20337;-69
2022/11/08 02:15:28;;;;;;;53.03;29.23;;;;;;;12.55;85.20;100350.63;5036147;28;20108;-69
2022/11/08 02:17:53;;;;;;;55.28;29.20;;;;;;;12.62;85.04;100350.81;5036663;28;20250;-69
2022/11/08 02:20:19;;;;;;;59.58;28.90;;;;;;;12.65;85.33;100347.81;5019754;28;20048;-69
2022/11/08 02:23:02;;;;;;;62.47;27.80;;;;;;;12.69;84.95;100349.16;5036840;28;20033;-69
2022/11/08 02:25:27;;;;;;;47.65;26.35;;;;;;;12.71;83.10;100350.69;5032669;28;20029;-69
2022/11/08 02:27:53;;;;;;;51.92;27.73;;;;;;;12.71;83.64;100352.50;5037139;28;20029;-69
2022/11/08 02:30:18;;;;;;;52.03;29.25;;;;;;;12.67;84.60;100344.03;5036134;28;20033;-69
2022/11/08 02:32:45;;;;;;;57.00;29.45;;;;;;;12.59;83.84;100346.66;5034438;28;20023;-69
2022/11/08 02:35:16;;;;;;;54.97;29.17;;;;;;;12.32;85.50;100350.31;5033529;28;20277;-69
2022/11/08 02:37:42;;;;;;;51.15;29.55;;;;;;;12.42;85.43;100359.00;5036081;28;20037;-69
2022/11/08 02:40:08;;;;;;;60.85;29.65;;;;;;;12.47;85.54;100350.56;5036305;28;20278;-69
2022/11/08 02:42:37;;;;;;;54.88;30.90;;;;;;;12.44;85.33;100353.53;5036608;28;20030;-69
2022/11/08 02:45:05;;;;;;;55.75;31.10;;;;;;;12.44;86.58;100357.00;5035277;28;20041;-70
2022/11/08 02:47:30;;;;;;;55.42;30.27;;;;;;;12.52;86.09;100350.94;5034921;28;20345;-69
2022/11/08 02:49:56;;;;;;;58.40;30.88;;;;;;;12.53;86.15;100359.75;5033401;28;20544;-69
2022/11/08 02:52:21;;;;;;;57.58;29.92;;;;;;;12.59;86.08;100354.63;5034861;28;20036;-69
2022/11/08 02:54:47;;;;;;;58.05;30.17;;;;;;;12.59;86.44;100362.59;5037428;28;20064;-69
2022/11/08 02:57:12;;;;;;;58.97;31.10;;;;;;;12.64;86.32;100354.97;5035681;28;20032;-69
2022/11/08 02:59:37;;;;;;;59.10;30.50;;;;;;;12.76;85.55;100350.19;5035260;28;20079;-69
2022/11/08 03:02:03;;;;;;;62.83;30.63;;;;;;;12.76;85.27;100353.69;5034877;28;20025;-69
2022/11/08 03:04:28;;;;;;;49.25;29.55;;;;;;;12.77;85.26;100363.31;5034832;28;20303;-69
2022/11/08 03:06:54;;;;;;;60.78;30.70;;;;;;;12.87;84.35;100359.69;5035104;28;20049;-69
2022/11/08 03:09:19;;;;;;;53.70;29.58;;;;;;;12.76;84.26;100358.16;5036859;28;20025;-69
2022/11/08 03:11:44;;;;;;;54.13;29.48;;;;;;;12.62;84.81;100348.16;5035521;28;20364;-69
2022/11/08 03:14:10;;;;;;;53.70;29.77;;;;;;;12.57;84.84;100359.25;5035410;28;20040;-69
2022/11/08 03:16:35;;;;;;;49.83;27.55;;;;;;;12.57;84.66;100358.44;5033675;28;20029;-69
2022/11/08 03:19:01;;;;;;;58.30;28.88;;;;;;;12.55;84.57;100363.91;5034830;28;20204;-69
2022/11/08 03:21:26;;;;;;;56.50;29.33;;;;;;;12.55;84.15;100360.41;5036135;28;20239;-69
2022/11/08 03:23:52;;;;;;;50.80;28.95;;;;;;;12.56;84.74;100362.91;5036088;28;20088;-69
2022/11/08 03:26:17;;;;;;;58.80;31.13;;;;;;;12.54;85.90;100364.88;5033253;28;20331;-69
2022/11/08 03:28:42;;;;;;;55.45;30.23;;;;;;;12.50;86.03;100362.72;5033325;28;20033;-69
2022/11/08 03:31:08;;;;;;;58.30;29.05;;;;;;;12.40;86.00;100363.63;5038475;28;20085;-69
2022/11/08 03:33:33;;;;;;;57.85;29.20;;;;;;;12.44;85.33;100370.28;5036499;28;20038;-69
2022/11/08 03:35:59;;;;;;;45.33;25.55;;;;;;;12.54;84.25;100366.72;5034156;28;20033;-69
2022/11/08 03:38:24;;;;;;;48.40;26.27;;;;;;;12.56;83.80;100370.03;5035792;28;20093;-69
2022/11/08 03:40:49;;;;;;;45.63;26.00;;;;;;;12.49;83.34;100359.22;5036433;28;20368;-69
2022/11/08 03:43:15;;;;;;;49.67;25.90;;;;;;;12.54;83.85;100366.72;5036288;28;20075;-69
2022/11/08 03:45:41;;;;;;;48.20;25.33;;;;;;;12.55;83.25;100369.22;5019429;28;20021;-69
2022/11/08 03:48:06;;;;;;;55.70;24.38;;;;;;;12.50;83.64;100368.03;5033581;28;20063;-69
2022/11/08 03:50:31;;;;;;;48.20;25.88;;;;;;;12.39;83.83;100366.44;5035825;28;20104;-69
2022/11/08 03:52:57;;;;;;;47.35;25.17;;;;;;;12.27;84.30;100362.41;5037249;28;20024;-69
2022/11/08 03:55:25;;;;;;;55.17;26.13;;;;;;;12.06;84.87;100352.16;5035241;28;20037;-69
2022/11/08 03:57:51;;;;;;;64.57;26.67;;;;;;;12.24;84.28;100365.38;5035846;28;20029;-69
2022/11/08 04:00:20;;;;;;;49.60;26.25;;;;;;;12.17;84.89;100361.69;5032686;28;20341;-69
2022/11/08 04:02:46;;;;;;;52.55;26.27;;;;;;;12.24;84.23;100355.59;5036353;28;20025;-69
2022/11/08 04:05:13;;;;;;;47.45;25.38;;;;;;;12.27;84.64;100357.94;5017900;28;20331;-69
2022/11/08 04:07:39;;;;;;;55.58;25.88;;;;;;;12.22;84.80;100356.72;5035284;28;20636;-69
2022/11/08 04:10:06;;;;;;;46.63;26.02;;;;;;;12.09;84.26;100341.22;5033912;28;20383;-69
2022/11/08 04:15:20;;;;;;;52.28;26.42;;;;;;;11.49;86.55;100338.47;5035620;28;20075;-70
2022/11/08 04:23:17;;;;;;;;;;;;;;;11.48;88.61;100340.28;5039132;28;20040;-69
2022/11/08 04:25:44;;;;;;;46.05;26.15;;;;;;;11.59;88.58;100333.06;5038208;28;20215;-69
2022/11/08 04:28:10;;;;;;;51.33;28.20;;;;;;;11.67;87.94;100341.09;5039370;28;20076;-69
2022/11/08 04:30:36;;;;;;;50.75;28.10;;;;;;;11.80;87.91;100344.19;5036838;28;20056;-69
2022/11/08 04:33:03;;;;;;;51.47;26.80;;;;;;;11.92;87.05;100345.59;5039490;28;20029;-69
2022/11/08 04:35:29;;;;;;;51.33;26.70;;;;;;;11.98;87.09;100338.84;5038711;28;20223;-69
2022/11/08 04:37:59;;;;;;;50.67;27.88;;;;;;;12.14;86.53;100347.72;5038098;28;20057;-69
2022/11/08 04:40:25;;;;;;;48.33;27.20;;;;;;;12.15;86.41;100353.88;5036102;28;20392;-69
2022/11/08 04:42:51;;;;;;;59.13;29.02;;;;;;;12.17;87.42;100356.38;5038572;28;20021;-69
2022/11/08 04:45:16;;;;;;;58.83;28.13;;;;;;;12.10;87.75;100364.13;5038805;28;20351;-69
2022/11/08 04:47:45;;;;;;;54.58;27.95;;;;;;;12.28;86.48;100374.69;5037814;28;20258;-69
2022/11/08 04:50:11;;;;;;;63.72;31.98;;;;;;;12.26;87.09;100372.19;5037162;28;20044;-69
2022/11/08 04:52:36;;;;;;;56.17;32.25;;;;;;;11.81;89.36;100378.53;5033789;28;20034;-69
2022/11/08 04:55:01;;;;;;;63.05;32.65;;;;;;;12.02;89.01;100374.69;5037297;28;21481;-69
2022/11/08 04:57:27;;;;;;;64.30;31.92;;;;;;;12.15;87.98;100381.25;5038890;28;20084;-69
2022/11/08 04:59:53;;;;;;;64.93;31.98;;;;;;;12.39;86.97;100390.34;5039614;28;20299;-69
2022/11/08 05:02:18;;;;;;;63.65;33.38;;;;;;;12.40;87.00;100395.50;5036829;28;20036;-70
2022/11/08 05:04:44;;;;;;;61.45;35.17;;;;;;;12.33;86.69;100399.78;5037827;28;20097;-70
2022/11/08 05:07:09;;;;;;;67.20;36.45;;;;;;;12.46;86.32;100394.88;5036347;28;20033;-70
2022/11/08 05:09:34;;;;;;;67.63;32.53;;;;;;;12.52;85.43;100395.25;5037669;28;20330;-69
2022/11/08 05:12:00;;;;;;;63.28;31.73;;;;;;;12.46;85.49;100397.53;5038600;28;20037;-69
2022/11/08 05:14:25;;;;;;;55.58;30.30;;;;;;;12.33;85.25;100396.28;5036196;28;20049;-69
2022/11/08 05:16:51;;;;;;;60.85;28.23;;;;;;;12.26;85.78;100390.78;5038064;28;20025;-69
2022/11/08 05:23:22;;;;;;;49.17;28.73;;;;;;;12.12;85.85;100383.38;5021093;28;20112;-69
2022/11/08 05:24:46;;;;;;;49.08;27.98;;;;;;;11.90;87.46;100395.34;5037188;28;20051;-69
2022/11/08 05:27:11;;;;;;;44.67;25.45;;;;;;;11.98;87.45;100397.22;5038380;28;20021;-69
2022/11/08 05:29:36;;;;;;;54.47;28.08;;;;;;;12.13;87.82;100401.81;5040048;28;20089;-69
2022/11/08 05:32:02;;;;;;;54.45;28.73;;;;;;;12.26;87.22;100398.75;5040685;28;20112;-69
2022/11/08 05:34:28;;;;;;;46.05;25.55;;;;;;;12.35;86.41;100407.59;5041699;28;20366;-69
2022/11/08 05:36:53;;;;;;;57.55;28.67;;;;;;;12.36;86.20;100406.59;5041700;28;20076;-69
2022/11/08 05:39:19;;;;;;;51.00;27.92;;;;;;;12.42;86.09;100401.50;5041613;28;20274;-69
2022/11/08 05:41:44;;;;;;;47.15;26.92;;;;;;;12.47;85.66;100398.34;5042133;28;20089;-69
2022/11/08 05:44:10;;;;;;;54.22;27.90;;;;;;;12.49;86.03;100406.19;5041422;28;20059;-69
2022/11/08 05:46:35;;;;;;;57.20;28.23;;;;;;;12.55;86.23;100409.06;5041735;28;20148;-70
2022/11/08 05:49:01;;;;;;;61.80;30.92;;;;;;;12.56;86.41;100408.06;5041700;28;20139;-69
2022/11/08 05:51:26;;;;;;;63.55;28.92;;;;;;;12.62;85.82;100419.88;5041241;28;20093;-69
2022/11/08 05:53:52;;;;;;;60.67;28.33;;;;;;;12.55;85.53;100401.09;5023744;28;20326;-69
2022/11/08 05:56:17;;;;;;;60.67;28.08;;;;;;;12.58;85.29;100413.22;5040644;28;20021;-69
2022/11/08 05:58:43;;;;;;;57.35;26.35;;;;;;;12.50;85.80;100411.34;5023521;28;20025;-69
2022/11/08 06:01:14;;;;;;;58.15;28.10;;;;;;;12.51;85.78;100422.81;5041097;28;20049;-70
2022/11/08 06:03:39;;;;;;;52.22;29.95;;;;;;;12.28;87.19;100425.13;5041147;28;20045;-69
2022/11/08 06:06:08;;;;;;;73.97;32.15;;;;;;;12.15;87.60;100414.94;5041068;28;20196;-69
2022/11/08 06:08:34;;;;;;;64.32;31.02;;;;;;;12.20;88.69;100430.41;5041354;28;20311;-69
2022/11/08 06:11:04;;;;;;;63.65;34.20;;;;;;;12.21;88.96;100432.91;5041275;28;20068;-69
2022/11/08 06:13:30;;;;;;;61.58;32.28;;;;;;;12.26;89.02;100435.91;5040736;28;20052;-69
2022/11/08 06:16:01;;;;;;;58.63;32.88;;;;;;;12.35;88.53;100440.28;5040838;28;20347;-69
2022/11/08 06:18:28;;;;;;;65.70;33.65;;;;;;;12.20;88.63;100439.19;5041161;28;20068;-69
2022/11/08 06:20:54;;;;;;;76.53;33.22;;;;;;;12.06;90.39;100439.75;5041397;28;20021;-69
2022/11/08 06:23:19;;;;;;;66.82;34.55;;;;;;;12.16;89.99;100440.50;5038290;28;20037;-69
2022/11/08 06:25:48;;;;;;;74.82;36.22;;;;;;;12.08;91.16;100443.94;5019996;28;20302;-69
2022/11/08 06:28:13;;;;;;;73.45;34.65;;;;;;;12.18;90.89;100441.19;5035094;28;20850;-70
2022/11/08 06:30:39;;;;;;;74.07;37.80;;;;;;;12.31;90.78;100448.72;5037878;28;20092;-69
2022/11/08 06:33:05;;;;;;;73.55;38.55;;;;;;;12.39;90.67;100449.63;5041825;28;20043;-69
2022/11/08 06:35:30;;;;;;;70.72;38.08;;;;;;;12.23;90.62;100436.22;5023479;28;20056;-69
2022/11/08 06:37:55;;;;;;;86.03;44.70;;;;;;;12.28;91.37;100439.25;5041159;28;20037;-69
2022/11/08 06:40:21;;;;;;;99.72;47.65;;;;;;;12.19;92.50;100442.00;5041066;28;20057;-69
2022/11/08 06:42:46;;;;;;;90.75;46.60;;;;;;;12.06;92.99;100445.91;5041596;28;20022;-69
2022/11/08 06:45:12;;;;;;;88.35;44.20;;;;;;;12.17;92.96;100449.28;5040701;28;20036;-69
2022/11/08 06:47:37;;;;;;;81.65;42.33;;;;;;;12.24;92.70;100440.56;5041516;28;20045;-69
2022/11/08 06:50:03;;;;;;;98.43;45.30;;;;;;;12.36;92.91;100441.97;5040864;28;20034;-69
2022/11/08 06:52:28;;;;;;;88.82;43.35;;;;;;;12.52;92.71;100437.75;5041073;28;20025;-69
2022/11/08 06:54:54;;;;;;;84.28;42.33;;;;;;;12.51;93.20;100431.63;5040681;28;20330;-69
2022/11/08 06:57:20;;;;;;;84.25;43.13;;;;;;;12.60;92.64;100433.31;5041115;28;20623;-69
2022/11/08 06:59:45;;;;;;;80.55;42.92;;;;;;;12.69;91.71;100435.03;5040639;28;20226;-69
2022/11/08 07:02:10;;;;;;;82.10;43.55;;;;;;;12.82;91.22;100441.72;5022956;28;20204;-69
2022/11/08 07:04:36;;;;;;;88.53;44.15;;;;;;;12.77;91.13;100428.91;5040854;28;20041;-69
2022/11/08 07:07:02;;;;;;;78.45;41.75;;;;;;;12.78;90.85;100439.38;5040578;28;20062;-69
2022/11/08 07:09:27;;;;;;;97.72;41.97;;;;;;;12.96;90.78;100443.78;5040448;28;20060;-69
2022/11/08 07:11:53;;;;;;;90.65;41.58;;;;;;;13.06;90.04;100447.13;5023011;28;20021;-69
2022/11/08 07:14:18;;;;;;;72.18;37.10;;;;;;;13.21;88.98;100440.25;5040498;28;20033;-69
2022/11/08 07:16:43;;;;;;;72.13;36.28;;;;;;;13.34;88.26;100443.25;5040492;28;20100;-69
2022/11/08 07:19:09;;;;;;;73.00;34.95;;;;;;;13.37;87.94;100445.59;5041950;28;20071;-69
2022/11/08 07:21:34;;;;;;;69.65;33.85;;;;;;;13.31;87.55;100450.75;5040603;28;20033;-69
2022/11/08 07:24:00;;;;;;;70.03;34.28;;;;;;;13.51;87.36;100448.63;5040287;28;20037;-69
2022/11/08 07:26:25;;;;;;;57.70;34.45;;;;;;;13.74;85.63;100449.69;5040882;28;20105;-69
2022/11/08 07:28:50;;;;;;;66.07;31.60;;;;;;;13.68;85.21;100445.00;5040533;28;20036;-69
2022/11/08 07:31:16;;;;;;;64.82;29.80;;;;;;;13.85;84.50;100452.00;5040107;28;20041;-69
2022/11/08 07:33:41;;;;;;;128.38;58.38;;;;;;;13.92;84.51;100450.34;5040427;28;20260;-69
2022/11/08 07:36:07;;;;;;;112.55;52.67;;;;;;;14.14;83.17;100442.69;5040211;28;20037;-69
2022/11/08 07:38:32;;;;;;;125.07;59.85;;;;;;;14.32;82.55;100444.16;5039897;28;20038;-69
2022/11/08 07:40:59;;;;;;;173.20;79.05;;;;;;;14.16;83.42;100430.84;5022731;28;20037;-69
2022/11/08 07:43:26;;;;;;;100.00;47.83;;;;;;;14.41;82.84;100430.81;5022669;28;20088;-69
2022/11/08 07:45:55;;;;;;;86.30;43.97;;;;;;;14.31;83.31;100447.81;5039695;28;20346;-69
2022/11/08 07:48:21;;;;;;;72.20;38.58;;;;;;;14.35;82.95;100442.97;5039549;28;20323;-69
2022/11/08 07:50:46;;;;;;;61.08;32.55;;;;;;;14.41;82.65;100449.47;5040213;28;20037;-70
2022/11/08 07:53:12;;;;;;;59.65;31.02;;;;;;;14.66;81.77;100443.13;5025240;28;20354;-69
2022/11/08 07:55:39;;;;;;;64.25;32.03;;;;;;;14.49;82.14;100437.00;5044288;28;20327;-69
2022/11/08 07:58:05;;;;;;;58.92;29.50;;;;;;;14.55;82.38;100444.31;5044659;28;20037;-69
2022/11/08 08:00:35;;;;;;;50.22;28.25;;;;;;;14.66;81.67;100451.13;5043957;28;20266;-69
2022/11/08 08:03:02;;;;;;;59.28;30.08;;;;;;;14.50;82.12;100443.16;5044098;28;20036;-69
2022/11/08 08:05:29;;;;;;;55.35;28.77;;;;;;;14.48;82.44;100442.50;5044107;28;20247;-69
2022/11/08 08:07:59;;;;;;;54.25;28.42;;;;;;;14.53;82.09;100440.97;5043759;28;20037;-69
2022/11/08 08:10:26;;;;;;;56.88;29.73;;;;;;;14.38;82.62;100447.97;5043981;28;20376;-69
2022/11/08 08:12:52;;;;;;;56.15;30.17;;;;;;;14.42;82.62;100444.00;5044346;28;20326;-69
2022/11/08 08:15:18;;;;;;;57.53;32.33;;;;;;;14.19;83.97;100429.69;5043083;28;20049;-69
2022/11/08 08:17:43;;;;;;;59.47;32.45;;;;;;;14.19;84.40;100432.34;5045728;28;20035;-69
2022/11/08 08:20:10;;;;;;;62.20;31.92;;;;;;;14.15;84.52;100445.19;5043833;28;20061;-69
2022/11/08 08:22:35;;;;;;;60.70;32.55;;;;;;;14.41;83.66;100442.31;5043615;28;20112;-69
2022/11/08 08:25:00;;;;;;;61.05;31.27;;;;;;;14.56;83.15;100445.13;5044775;28;20354;-69
2022/11/08 08:27:26;;;;;;;62.72;31.27;;;;;;;14.63;82.91;100443.47;5044209;28;20022;-69
2022/11/08 08:29:51;;;;;;;56.00;30.88;;;;;;;14.65;82.84;100446.81;5043427;28;20212;-69
2022/11/08 08:32:17;;;;;;;59.15;30.42;;;;;;;14.54;82.48;100450.63;5043466;28;20249;-69
2022/11/08 08:34:42;;;;;;;61.42;30.17;;;;;;;14.52;82.36;100441.16;5042678;28;20104;-69
2022/11/08 08:37:08;;;;;;;51.60;29.58;;;;;;;14.60;82.34;100441.97;5043398;28;20219;-69
2022/11/08 08:39:34;;;;;;;64.63;32.20;;;;;;;14.74;81.58;100437.78;5043528;28;20030;-69
2022/11/08 08:41:59;;;;;;;59.08;30.90;;;;;;;14.72;81.81;100430.97;5043814;28;20025;-69
2022/11/08 08:44:25;;;;;;;60.70;31.25;;;;;;;14.91;81.19;100434.03;5043282;28;20083;-69
2022/11/08 08:46:50;;;;;;;57.83;31.27;;;;;;;15.03;80.27;100431.81;5043288;28;20123;-69
2022/11/08 08:49:16;;;;;;;54.00;30.83;;;;;;;15.12;80.37;100436.13;5043408;28;20160;-69
2022/11/08 08:51:41;;;;;;;58.17;29.95;;;;;;;15.32;79.45;100442.66;5043353;28;20101;-69
2022/11/08 08:54:06;;;;;;;59.00;29.95;;;;;;;15.49;78.93;100438.06;5043131;28;20041;-69
2022/11/08 08:56:32;;;;;;;58.97;33.45;;;;;;;15.37;78.57;100439.47;5043244;28;20192;-69
2022/11/08 08:58:57;;;;;;;51.97;30.92;;;;;;;15.31;79.24;100435.66;5042854;28;20072;-69
2022/11/08 09:01:23;;;;;;;55.40;29.80;;;;;;;15.14;79.57;100431.44;5042917;28;20269;-69
2022/11/08 09:03:48;;;;;;;51.03;28.38;;;;;;;15.52;78.87;100436.88;5042600;28;20250;-69
2022/11/08 09:06:14;;;;;;;51.90;28.08;;;;;;;15.74;77.68;100444.13;5042923;28;20037;-69
2022/11/08 09:08:39;;;;;;;51.53;25.67;;;;;;;15.79;76.65;100438.25;5021847;28;20117;-69
2022/11/08 09:11:04;;;;;;;53.47;27.65;;;;;;;15.73;76.84;100441.63;5030362;28;20030;-69
2022/11/08 09:13:30;;;;;;;51.97;27.35;;;;;;;16.08;75.76;100432.16;5022917;28;20041;-69
2022/11/08 09:15:57;;;;;;;48.50;26.30;;;;;;;16.08;75.03;100427.63;5022969;28;20032;-69
2022/11/08 09:18:23;;;;;;;41.78;25.10;;;;;;;16.10;75.22;100430.97;5022968;28;21076;-69
2022/11/08 09:20:49;;;;;;;39.15;22.92;;;;;;;16.01;75.61;100421.38;5022982;28;20037;-69
2022/11/08 09:23:17;;;;;;;49.50;25.05;;;;;;;16.27;75.03;100420.94;5022781;28;20050;-69
2022/11/08 09:25:43;;;;;;;44.97;24.15;;;;;;;16.29;74.42;100435.78;5022601;28;20030;-69
2022/11/08 09:28:08;;;;;;;48.28;24.35;;;;;;;16.17;74.98;100431.91;5019812;28;20228;-69
2022/11/08 09:30:34;;;;;;;44.17;24.60;;;;;;;16.17;75.07;100421.22;5017152;28;20097;-69
2022/11/08 09:33:00;;;;;;;50.10;24.10;;;;;;;16.22;74.22;100428.69;5018005;28;20037;-69
2022/11/08 09:35:26;;;;;;;48.38;24.88;;;;;;;16.12;75.09;100423.59;5017460;28;20329;-69
2022/11/08 09:37:52;;;;;;;51.22;24.25;;;;;;;16.25;74.91;100423.81;5018588;28;20044;-69
2022/11/08 09:40:26;;;;;;;48.67;24.70;;;;;;;16.04;74.82;100404.97;5018250;28;20407;-69
2022/11/08 09:43:13;;;;;;;47.80;23.83;;;;;;;16.23;74.47;100416.97;5018197;28;20084;-69
2022/11/08 09:45:46;;;;;;;54.03;26.70;;;;;;;16.26;74.30;100412.09;5018692;28;20584;-69
2022/11/08 09:48:37;;;;;;;47.50;24.52;;;;;;;16.37;73.99;100413.50;5019235;28;20215;-69
2022/11/08 09:51:09;;;;;;;45.08;25.15;;;;;;;16.31;73.89;100421.41;5017465;28;20053;-69
2022/11/08 09:53:55;;;;;;;41.47;24.27;;;;;;;16.32;73.68;100421.22;5018894;28;20046;-69
2022/11/08 09:56:20;;;;;;;41.35;22.48;;;;;;;16.53;73.00;100412.47;5017938;28;20029;-69
2022/11/08 09:59:03;;;;;;;41.38;21.05;;;;;;;16.56;72.67;100409.44;5019072;28;20034;-69
2022/11/08 10:01:32;;;;;;;41.40;22.00;;;;;;;16.57;72.91;100419.94;5018466;28;20026;-70
2022/11/08 10:04:04;;;;;;;39.78;21.35;;;;;;;16.47;73.81;100408.72;5018203;28;20105;-69
2022/11/08 10:06:49;;;;;;;41.10;20.55;;;;;;;16.66;72.87;100410.06;5017409;28;20124;-69
2022/11/08 10:09:33;;;;;;;41.22;21.42;;;;;;;16.90;71.98;100403.56;5037351;28;20255;-69
2022/11/08 10:12:02;;;;;;;;;;;;;;;16.78;72.12;100410.41;5036777;28;20036;-69
2022/11/08 10:14:37;;;;;;;41.28;20.63;;;;;;;16.83;71.95;100413.38;5037282;28;20327;-69
2022/11/08 10:17:39;;;;;;;38.88;20.60;;;;;;;16.68;72.16;100400.00;5036689;28;20037;-69
2022/11/08 10:20:29;;;;;;;42.13;20.75;;;;;;;16.67;72.23;100410.88;5035685;28;20041;-69
2022/11/08 10:23:36;;;;;;;40.90;19.30;;;;;;;16.48;72.57;100415.72;5034662;28;20034;-69
2022/11/08 10:26:17;;;;;;;38.55;19.55;;;;;;;16.41;73.43;100409.44;5024961;28;20378;-69
2022/11/08 10:28:49;;;;;;;44.22;20.30;;;;;;;16.47;72.85;100387.31;5016303;28;20049;-69
2022/11/08 10:31:16;;;;;;;40.65;20.55;;;;;;;16.59;72.69;100399.22;5032963;28;20040;-69
2022/11/08 10:33:53;;;;;;;40.55;20.60;;;;;;;16.65;72.76;100400.38;5036840;28;20038;-69
2022/11/08 10:36:30;;;;;;;39.10;19.13;;;;;;;16.79;72.26;100388.00;5037844;28;20037;-69
2022/11/08 10:39:03;;;;;;;39.55;18.75;;;;;;;16.96;71.26;100399.31;5035464;28;20037;-69
2022/11/08 10:41:51;;;;;;;44.03;20.00;;;;;;;16.70;71.67;100363.22;5036815;28;20383;-69
2022/11/08 10:44:23;;;;;;;38.17;20.20;;;;;;;16.70;71.85;100367.72;5035036;28;20357;-69
2022/11/08 10:47:14;;;;;;;37.80;20.60;;;;;;;16.58;72.89;100384.19;5034822;28;20033;-69
2022/11/08 10:49:42;;;;;;;40.75;20.63;;;;;;;16.71;72.47;100377.41;5036003;28;20037;-69
2022/11/08 10:52:10;;;;;;;45.95;20.90;;;;;;;16.78;72.32;100381.81;5035620;28;20100;-69
2022/11/08 10:54:46;;;;;;;34.50;20.38;;;;;;;16.85;71.90;100374.72;5033491;28;20109;-69
2022/11/08 10:57:23;;;;;;;37.92;19.88;;;;;;;16.95;71.67;100371.75;5035220;28;21136;-69
2022/11/08 10:59:50;;;;;;;38.17;20.50;;;;;;;17.08;71.06;100363.88;5031839;28;20033;-69
2022/11/08 11:02:28;;;;;;;41.72;20.70;;;;;;;17.13;70.83;100374.81;5035111;28;20331;-69
2022/11/08 11:05:17;;;;;;;35.63;19.65;;;;;;;17.10;70.76;100363.66;5037605;28;20055;-69
2022/11/08 11:08:01;;;;;;;38.00;19.92;;;;;;;17.07;70.55;100362.22;5036296;28;20041;-69
2022/11/08 11:10:27;;;;;;;43.28;21.05;;;;;;;17.09;71.07;100356.66;5036669;28;20242;-69
2022/11/08 11:13:18;;;;;;;40.88;19.35;;;;;;;17.14;70.85;100352.41;5037069;28;20104;-69
2022/11/08 11:16:09;;;;;;;30.55;18.02;;;;;;;17.38;69.55;100353.88;5037395;28;20036;-69
2022/11/08 11:18:44;;;;;;;37.47;19.17;;;;;;;17.42;69.33;100344.44;5019218;28;20391;-69
2022/11/08 11:21:15;;;;;;;38.25;20.10;;;;;;;17.52;69.00;100350.31;5036884;28;20033;-69
2022/11/08 11:23:40;;;;;;;40.22;21.20;;;;;;;17.36;70.04;100345.22;5037012;28;20069;-69
2022/11/08 11:26:15;;;;;;;36.25;19.60;;;;;;;17.36;69.41;100345.22;5037115;28;20061;-69
2022/11/08 11:29:03;;;;;;;33.80;20.02;;;;;;;17.31;69.85;100341.44;5036784;28;20029;-69
2022/11/08 11:31:29;;;;;;;34.63;18.88;;;;;;;17.16;70.40;100347.69;5034781;28;20059;-69
2022/11/08 11:33:54;;;;;;;37.55;20.15;;;;;;;17.13;70.67;100340.03;5035194;28;20065;-69